19°C Temp
15°C Dewpoint
78% Humidity
Temperature
10 KM/H
6 MPH
5 KTS
40°
North East

Wind Speed
Clear
Conditions
Pressure 1028.92 (hPa) - 30.38 (in)
Visibility 6.2 (mi) - 10.0 (km)

Current Conditions
EGLL
Location 21(mi)
Metar :EGLL 090650Z AUTO 04005KT 010V080 9999 NCD 19/15 Q1029 NOSIG
Tue 9th August 06:50 am

Airport
  Metar Aviation API Data Provided by https://www.checkwx.com/ PHP scripts by weather34.com ©2022